sensor_id;sensor_type;location;lat;lon;timestamp;temperature;humidity
5226;DHT22;2632;51.666;7.146;2023-06-22T00:00:11;21.40;92.50
5226;DHT22;2632;51.666;7.146;2023-06-22T00:02:39;21.40;92.80
5226;DHT22;2632;51.666;7.146;2023-06-22T00:05:05;21.30;93.40
5226;DHT22;2632;51.666;7.146;2023-06-22T00:07:32;21.40;93.60
5226;DHT22;2632;51.666;7.146;2023-06-22T00:09:59;21.30;93.80
5226;DHT22;2632;51.666;7.146;2023-06-22T00:12:25;21.30;94.00
5226;DHT22;2632;51.666;7.146;2023-06-22T00:14:52;21.30;94.10
5226;DHT22;2632;51.666;7.146;2023-06-22T00:17:19;21.40;94.20
5226;DHT22;2632;51.666;7.146;2023-06-22T00:19:47;21.30;94.50
5226;DHT22;2632;51.666;7.146;2023-06-22T00:22:14;21.20;94.90
5226;DHT22;2632;51.666;7.146;2023-06-22T00:24:41;21.20;95.00
5226;DHT22;2632;51.666;7.146;2023-06-22T00:27:08;21.30;95.20
5226;DHT22;2632;51.666;7.146;2023-06-22T00:29:34;21.30;95.10
5226;DHT22;2632;51.666;7.146;2023-06-22T00:32:01;21.30;95.40
5226;DHT22;2632;51.666;7.146;2023-06-22T00:34:28;21.20;95.60
5226;DHT22;2632;51.666;7.146;2023-06-22T00:36:54;21.20;95.80
5226;DHT22;2632;51.666;7.146;2023-06-22T00:39:21;21.10;96.10
5226;DHT22;2632;51.666;7.146;2023-06-22T00:41:48;21.10;96.40
5226;DHT22;2632;51.666;7.146;2023-06-22T00:44:14;21.10;96.40
5226;DHT22;2632;51.666;7.146;2023-06-22T00:46:41;21.10;96.70
5226;DHT22;2632;51.666;7.146;2023-06-22T00:49:07;21.10;96.80
5226;DHT22;2632;51.666;7.146;2023-06-22T00:51:34;21.10;96.90
5226;DHT22;2632;51.666;7.146;2023-06-22T00:54:05;21.00;97.00
5226;DHT22;2632;51.666;7.146;2023-06-22T00:56:32;21.00;97.20
5226;DHT22;2632;51.666;7.146;2023-06-22T00:59:00;21.00;97.60
5226;DHT22;2632;51.666;7.146;2023-06-22T01:01:29;21.00;97.80
5226;DHT22;2632;51.666;7.146;2023-06-22T01:03:56;21.00;97.70
5226;DHT22;2632;51.666;7.146;2023-06-22T01:06:30;21.00;97.70
5226;DHT22;2632;51.666;7.146;2023-06-22T01:09:11;21.00;97.70
5226;DHT22;2632;51.666;7.146;2023-06-22T01:11:45;21.00;98.10
5226;DHT22;2632;51.666;7.146;2023-06-22T01:14:18;20.90;98.20
5226;DHT22;2632;51.666;7.146;2023-06-22T01:16:48;20.80;98.60
5226;DHT22;2632;51.666;7.146;2023-06-22T01:19:49;20.90;98.70
5226;DHT22;2632;51.666;7.146;2023-06-22T01:22:30;20.90;98.60
5226;DHT22;2632;51.666;7.146;2023-06-22T01:30:08;20.80;99.20
5226;DHT22;2632;51.666;7.146;2023-06-22T01:32:38;20.70;99.20
5226;DHT22;2632;51.666;7.146;2023-06-22T01:35:07;20.60;99.50
5226;DHT22;2632;51.666;7.146;2023-06-22T01:37:35;20.70;99.60
5226;DHT22;2632;51.666;7.146;2023-06-22T01:40:04;20.70;99.60
5226;DHT22;2632;51.666;7.146;2023-06-22T01:42:32;20.60;99.80
5226;DHT22;2632;51.666;7.146;2023-06-22T01:45:00;20.60;99.90
5226;DHT22;2632;51.666;7.146;2023-06-22T01:47:27;20.60;99.90
5226;DHT22;2632;51.666;7.146;2023-06-22T01:49:55;20.60;99.90
5226;DHT22;2632;51.666;7.146;2023-06-22T01:52:22;20.50;99.90
5226;DHT22;2632;51.666;7.146;2023-06-22T01:54:48;20.40;99.90
5226;DHT22;2632;51.666;7.146;2023-06-22T01:57:15;20.50;99.90
5226;DHT22;2632;51.666;7.146;2023-06-22T01:59:58;20.40;99.90
5226;DHT22;2632;51.666;7.146;2023-06-22T02:02:29;20.40;99.90
5226;DHT22;2632;51.666;7.146;2023-06-22T02:05:09;20.30;99.90
5226;DHT22;2632;51.666;7.146;2023-06-22T02:07:47;20.30;99.90
5226;DHT22;2632;51.666;7.146;2023-06-22T02:10:19;20.30;99.90
5226;DHT22;2632;51.666;7.146;2023-06-22T02:12:48;20.30;99.90
5226;DHT22;2632;51.666;7.146;2023-06-22T02:15:15;20.30;99.90
5226;DHT22;2632;51.666;7.146;2023-06-22T02:17:42;20.20;99.90
5226;DHT22;2632;51.666;7.146;2023-06-22T02:20:13;20.20;99.90
5226;DHT22;2632;51.666;7.146;2023-06-22T02:22:40;20.20;99.90
5226;DHT22;2632;51.666;7.146;2023-06-22T02:25:07;20.10;99.90
5226;DHT22;2632;51.666;7.146;2023-06-22T02:27:34;20.10;99.90
5226;DHT22;2632;51.666;7.146;2023-06-22T02:30:00;20.10;99.90
5226;DHT22;2632;51.666;7.146;2023-06-22T02:32:27;20.10;99.90
5226;DHT22;2632;51.666;7.146;2023-06-22T02:34:54;20.10;99.90
5226;DHT22;2632;51.666;7.146;2023-06-22T02:37:21;20.20;99.90
5226;DHT22;2632;51.666;7.146;2023-06-22T02:39:51;20.20;99.90
5226;DHT22;2632;51.666;7.146;2023-06-22T02:42:18;20.10;99.90
5226;DHT22;2632;51.666;7.146;2023-06-22T02:44:47;20.10;99.90
5226;DHT22;2632;51.666;7.146;2023-06-22T02:47:14;20.00;99.90
5226;DHT22;2632;51.666;7.146;2023-06-22T02:49:40;20.00;99.90
5226;DHT22;2632;51.666;7.146;2023-06-22T02:52:08;19.90;99.90
5226;DHT22;2632;51.666;7.146;2023-06-22T02:54:35;19.90;99.90
5226;DHT22;2632;51.666;7.146;2023-06-22T02:57:01;20.00;99.90
5226;DHT22;2632;51.666;7.146;2023-06-22T02:59:31;19.90;99.90
5226;DHT22;2632;51.666;7.146;2023-06-22T03:02:00;19.80;99.90
5226;DHT22;2632;51.666;7.146;2023-06-22T03:04:27;19.90;99.90
5226;DHT22;2632;51.666;7.146;2023-06-22T03:06:53;19.80;99.90
5226;DHT22;2632;51.666;7.146;2023-06-22T03:09:20;19.80;99.90
5226;DHT22;2632;51.666;7.146;2023-06-22T03:11:46;19.80;99.90
5226;DHT22;2632;51.666;7.146;2023-06-22T03:14:13;19.80;99.90
5226;DHT22;2632;51.666;7.146;2023-06-22T03:16:40;19.80;99.90
5226;DHT22;2632;51.666;7.146;2023-06-22T03:19:07;19.70;99.90
5226;DHT22;2632;51.666;7.146;2023-06-22T03:21:34;19.70;99.90
5226;DHT22;2632;51.666;7.146;2023-06-22T03:24:00;19.60;99.90
5226;DHT22;2632;51.666;7.146;2023-06-22T03:26:27;19.60;99.90
5226;DHT22;2632;51.666;7.146;2023-06-22T03:28:54;19.60;99.90
5226;DHT22;2632;51.666;7.146;2023-06-22T03:31:21;19.60;99.90
5226;DHT22;2632;51.666;7.146;2023-06-22T03:33:49;19.50;99.90
5226;DHT22;2632;51.666;7.146;2023-06-22T03:36:17;19.50;99.90
5226;DHT22;2632;51.666;7.146;2023-06-22T03:38:48;19.50;99.90
5226;DHT22;2632;51.666;7.146;2023-06-22T03:41:15;19.50;99.90
5226;DHT22;2632;51.666;7.146;2023-06-22T03:43:42;19.50;99.90
5226;DHT22;2632;51.666;7.146;2023-06-22T03:46:09;19.50;99.90
5226;DHT22;2632;51.666;7.146;2023-06-22T03:48:35;19.70;99.90
5226;DHT22;2632;51.666;7.146;2023-06-22T03:51:02;19.70;99.90
5226;DHT22;2632;51.666;7.146;2023-06-22T03:53:29;19.80;99.90
5226;DHT22;2632;51.666;7.146;2023-06-22T03:55:56;19.70;99.90
5226;DHT22;2632;51.666;7.146;2023-06-22T03:58:23;19.60;99.90
5226;DHT22;2632;51.666;7.146;2023-06-22T04:00:51;19.70;99.90
5226;DHT22;2632;51.666;7.146;2023-06-22T04:03:18;19.40;99.90
5226;DHT22;2632;51.666;7.146;2023-06-22T04:05:46;19.50;99.90
5226;DHT22;2632;51.666;7.146;2023-06-22T04:08:13;19.60;99.90
5226;DHT22;2632;51.666;7.146;2023-06-22T04:10:40;19.50;99.90
5226;DHT22;2632;51.666;7.146;2023-06-22T04:13:07;19.60;99.90
5226;DHT22;2632;51.666;7.146;2023-06-22T04:15:34;19.60;99.90
5226;DHT22;2632;51.666;7.146;2023-06-22T04:18:00;19.60;99.90
5226;DHT22;2632;51.666;7.146;2023-06-22T04:20:27;19.60;99.90
5226;DHT22;2632;51.666;7.146;2023-06-22T04:22:56;19.60;99.90
5226;DHT22;2632;51.666;7.146;2023-06-22T04:25:22;19.60;99.90
5226;DHT22;2632;51.666;7.146;2023-06-22T04:27:49;19.70;99.90
5226;DHT22;2632;51.666;7.146;2023-06-22T04:30:16;19.70;99.90
5226;DHT22;2632;51.666;7.146;2023-06-22T04:32:44;19.70;99.90
5226;DHT22;2632;51.666;7.146;2023-06-22T04:35:11;19.60;99.90
5226;DHT22;2632;51.666;7.146;2023-06-22T04:37:38;19.80;99.90
5226;DHT22;2632;51.666;7.146;2023-06-22T04:40:06;19.80;99.90
5226;DHT22;2632;51.666;7.146;2023-06-22T04:42:34;19.80;99.90
5226;DHT22;2632;51.666;7.146;2023-06-22T04:45:03;19.90;99.90
5226;DHT22;2632;51.666;7.146;2023-06-22T04:47:30;19.90;99.90
5226;DHT22;2632;51.666;7.146;2023-06-22T04:49:57;20.00;99.90
5226;DHT22;2632;51.666;7.146;2023-06-22T04:52:23;20.00;99.90
5226;DHT22;2632;51.666;7.146;2023-06-22T04:54:51;20.20;99.90
5226;DHT22;2632;51.666;7.146;2023-06-22T04:57:22;20.40;99.90
5226;DHT22;2632;51.666;7.146;2023-06-22T04:59:59;20.40;99.90
5226;DHT22;2632;51.666;7.146;2023-06-22T05:02:38;20.50;99.90
5226;DHT22;2632;51.666;7.146;2023-06-22T05:05:05;20.50;99.90
5226;DHT22;2632;51.666;7.146;2023-06-22T05:07:34;20.60;99.90
5226;DHT22;2632;51.666;7.146;2023-06-22T05:10:05;20.70;99.90
5226;DHT22;2632;51.666;7.146;2023-06-22T05:12:31;20.70;99.90
5226;DHT22;2632;51.666;7.146;2023-06-22T05:14:58;20.70;99.90
5226;DHT22;2632;51.666;7.146;2023-06-22T05:17:25;20.80;99.90
5226;DHT22;2632;51.666;7.146;2023-06-22T05:19:52;20.70;99.90
5226;DHT22;2632;51.666;7.146;2023-06-22T05:22:19;20.70;99.90
5226;DHT22;2632;51.666;7.146;2023-06-22T05:24:46;20.80;99.90
5226;DHT22;2632;51.666;7.146;2023-06-22T05:27:13;20.80;99.90
5226;DHT22;2632;51.666;7.146;2023-06-22T05:29:40;20.90;99.90
5226;DHT22;2632;51.666;7.146;2023-06-22T05:32:09;20.80;99.90
5226;DHT22;2632;51.666;7.146;2023-06-22T05:34:35;20.80;99.90
5226;DHT22;2632;51.666;7.146;2023-06-22T05:37:02;20.90;99.90
5226;DHT22;2632;51.666;7.146;2023-06-22T05:39:29;20.90;99.90
5226;DHT22;2632;51.666;7.146;2023-06-22T05:41:56;20.90;99.90
5226;DHT22;2632;51.666;7.146;2023-06-22T05:44:22;20.90;99.90
5226;DHT22;2632;51.666;7.146;2023-06-22T05:46:49;20.90;99.90
5226;DHT22;2632;51.666;7.146;2023-06-22T05:49:16;20.80;99.90
5226;DHT22;2632;51.666;7.146;2023-06-22T05:51:43;20.80;99.90
5226;DHT22;2632;51.666;7.146;2023-06-22T05:54:10;20.70;99.90
5226;DHT22;2632;51.666;7.146;2023-06-22T05:56:36;20.80;99.90
5226;DHT22;2632;51.666;7.146;2023-06-22T05:59:04;20.80;99.90
5226;DHT22;2632;51.666;7.146;2023-06-22T06:01:30;20.80;99.90
5226;DHT22;2632;51.666;7.146;2023-06-22T06:04:07;20.80;99.90
5226;DHT22;2632;51.666;7.146;2023-06-22T06:06:37;20.80;99.90
5226;DHT22;2632;51.666;7.146;2023-06-22T06:09:04;20.80;99.90
5226;DHT22;2632;51.666;7.146;2023-06-22T06:11:31;20.70;99.90
5226;DHT22;2632;51.666;7.146;2023-06-22T06:13:57;20.80;99.90
5226;DHT22;2632;51.666;7.146;2023-06-22T06:16:24;20.60;99.90
5226;DHT22;2632;51.666;7.146;2023-06-22T06:18:51;20.60;99.90
5226;DHT22;2632;51.666;7.146;2023-06-22T06:21:19;20.70;99.90
5226;DHT22;2632;51.666;7.146;2023-06-22T06:23:46;20.70;99.90
5226;DHT22;2632;51.666;7.146;2023-06-22T06:26:14;20.70;99.90
5226;DHT22;2632;51.666;7.146;2023-06-22T06:28:43;20.70;99.90
5226;DHT22;2632;51.666;7.146;2023-06-22T06:31:10;20.80;99.90
5226;DHT22;2632;51.666;7.146;2023-06-22T06:33:38;20.70;99.90
5226;DHT22;2632;51.666;7.146;2023-06-22T06:36:05;20.90;99.90
5226;DHT22;2632;51.666;7.146;2023-06-22T06:38:32;20.90;99.90
5226;DHT22;2632;51.666;7.146;2023-06-22T06:40:58;20.80;99.90
5226;DHT22;2632;51.666;7.146;2023-06-22T06:43:26;20.80;99.90
5226;DHT22;2632;51.666;7.146;2023-06-22T06:45:52;20.80;99.90
5226;DHT22;2632;51.666;7.146;2023-06-22T06:48:19;20.80;99.90
5226;DHT22;2632;51.666;7.146;2023-06-22T06:50:46;20.80;99.90
5226;DHT22;2632;51.666;7.146;2023-06-22T06:53:12;20.80;99.90
5226;DHT22;2632;51.666;7.146;2023-06-22T06:55:39;20.80;99.90
5226;DHT22;2632;51.666;7.146;2023-06-22T06:58:06;20.70;99.90
5226;DHT22;2632;51.666;7.146;2023-06-22T07:00:34;20.80;99.90
5226;DHT22;2632;51.666;7.146;2023-06-22T07:03:02;20.70;99.90
5226;DHT22;2632;51.666;7.146;2023-06-22T07:05:29;20.70;99.90
5226;DHT22;2632;51.666;7.146;2023-06-22T07:07:55;20.80;99.90
5226;DHT22;2632;51.666;7.146;2023-06-22T07:10:22;20.80;99.90
5226;DHT22;2632;51.666;7.146;2023-06-22T07:12:49;20.70;99.90
5226;DHT22;2632;51.666;7.146;2023-06-22T07:15:15;20.80;99.90
5226;DHT22;2632;51.666;7.146;2023-06-22T07:17:44;20.90;99.90
5226;DHT22;2632;51.666;7.146;2023-06-22T07:20:11;21.00;99.90
5226;DHT22;2632;51.666;7.146;2023-06-22T07:22:40;21.00;99.90
5226;DHT22;2632;51.666;7.146;2023-06-22T07:25:07;21.00;99.90
5226;DHT22;2632;51.666;7.146;2023-06-22T07:28:02;21.10;99.90
5226;DHT22;2632;51.666;7.146;2023-06-22T07:30:30;21.00;99.90
5226;DHT22;2632;51.666;7.146;2023-06-22T07:32:58;21.20;99.90
5226;DHT22;2632;51.666;7.146;2023-06-22T07:35:25;21.10;99.90
5226;DHT22;2632;51.666;7.146;2023-06-22T07:37:51;21.10;99.90
5226;DHT22;2632;51.666;7.146;2023-06-22T07:40:18;21.20;99.90
5226;DHT22;2632;51.666;7.146;2023-06-22T07:42:44;21.20;99.90
5226;DHT22;2632;51.666;7.146;2023-06-22T07:45:14;21.10;99.90
5226;DHT22;2632;51.666;7.146;2023-06-22T07:47:41;21.20;99.90
5226;DHT22;2632;51.666;7.146;2023-06-22T07:50:08;21.20;99.90
5226;DHT22;2632;51.666;7.146;2023-06-22T07:52:34;21.20;99.90
5226;DHT22;2632;51.666;7.146;2023-06-22T07:55:01;21.20;99.90
5226;DHT22;2632;51.666;7.146;2023-06-22T07:57:29;21.40;99.90
5226;DHT22;2632;51.666;7.146;2023-06-22T08:00:04;21.50;99.90
5226;DHT22;2632;51.666;7.146;2023-06-22T08:02:39;21.60;99.90
5226;DHT22;2632;51.666;7.146;2023-06-22T08:05:08;21.60;99.90
5226;DHT22;2632;51.666;7.146;2023-06-22T08:07:47;21.80;99.90
5226;DHT22;2632;51.666;7.146;2023-06-22T08:10:15;22.00;99.90
5226;DHT22;2632;51.666;7.146;2023-06-22T08:12:42;22.10;99.90
5226;DHT22;2632;51.666;7.146;2023-06-22T08:15:09;22.20;99.90
5226;DHT22;2632;51.666;7.146;2023-06-22T08:17:37;22.30;99.90
5226;DHT22;2632;51.666;7.146;2023-06-22T08:20:05;22.30;99.90
5226;DHT22;2632;51.666;7.146;2023-06-22T08:22:41;22.40;99.90
5226;DHT22;2632;51.666;7.146;2023-06-22T08:25:09;22.60;99.90
5226;DHT22;2632;51.666;7.146;2023-06-22T08:27:36;22.70;99.90
5226;DHT22;2632;51.666;7.146;2023-06-22T08:30:03;22.80;99.90
5226;DHT22;2632;51.666;7.146;2023-06-22T08:32:32;22.90;99.90
5226;DHT22;2632;51.666;7.146;2023-06-22T08:35:00;22.80;99.90
5226;DHT22;2632;51.666;7.146;2023-06-22T08:37:28;22.80;99.90
5226;DHT22;2632;51.666;7.146;2023-06-22T08:40:00;23.00;99.90
5226;DHT22;2632;51.666;7.146;2023-06-22T08:42:27;23.20;99.90
5226;DHT22;2632;51.666;7.146;2023-06-22T08:44:54;23.40;99.90
5226;DHT22;2632;51.666;7.146;2023-06-22T08:47:21;23.60;99.90
5226;DHT22;2632;51.666;7.146;2023-06-22T08:49:49;23.90;99.60
5226;DHT22;2632;51.666;7.146;2023-06-22T08:52:17;23.80;99.80
5226;DHT22;2632;51.666;7.146;2023-06-22T08:54:45;24.20;99.20
5226;DHT22;2632;51.666;7.146;2023-06-22T08:57:12;24.60;98.50
5226;DHT22;2632;51.666;7.146;2023-06-22T08:59:38;24.70;98.40
5226;DHT22;2632;51.666;7.146;2023-06-22T09:02:05;24.50;98.60
5226;DHT22;2632;51.666;7.146;2023-06-22T09:04:32;24.60;98.70
5226;DHT22;2632;51.666;7.146;2023-06-22T09:07:02;24.70;98.30
5226;DHT22;2632;51.666;7.146;2023-06-22T09:09:29;25.20;97.90
5226;DHT22;2632;51.666;7.146;2023-06-22T09:11:56;25.30;97.30
5226;DHT22;2632;51.666;7.146;2023-06-22T09:14:22;25.30;97.00
5226;DHT22;2632;51.666;7.146;2023-06-22T09:16:49;25.20;97.10
5226;DHT22;2632;51.666;7.146;2023-06-22T09:19:15;25.30;97.10
5226;DHT22;2632;51.666;7.146;2023-06-22T09:21:42;25.10;97.00
5226;DHT22;2632;51.666;7.146;2023-06-22T09:24:09;25.00;97.00
5226;DHT22;2632;51.666;7.146;2023-06-22T09:26:35;25.10;97.40
5226;DHT22;2632;51.666;7.146;2023-06-22T09:29:05;25.10;97.30
5226;DHT22;2632;51.666;7.146;2023-06-22T09:31:33;25.00;97.20
5226;DHT22;2632;51.666;7.146;2023-06-22T09:34:00;25.00;97.30
5226;DHT22;2632;51.666;7.146;2023-06-22T09:36:27;25.00;96.90
5226;DHT22;2632;51.666;7.146;2023-06-22T09:38:53;25.10;97.20
5226;DHT22;2632;51.666;7.146;2023-06-22T09:41:25;25.10;97.00
5226;DHT22;2632;51.666;7.146;2023-06-22T09:43:51;25.00;97.20
5226;DHT22;2632;51.666;7.146;2023-06-22T09:46:21;24.90;97.10
5226;DHT22;2632;51.666;7.146;2023-06-22T09:48:51;24.90;97.20
5226;DHT22;2632;51.666;7.146;2023-06-22T09:51:18;24.70;97.30
5226;DHT22;2632;51.666;7.146;2023-06-22T09:53:46;24.80;98.10
5226;DHT22;2632;51.666;7.146;2023-06-22T09:56:13;24.80;97.40
5226;DHT22;2632;51.666;7.146;2023-06-22T09:58:45;24.80;97.40
5226;DHT22;2632;51.666;7.146;2023-06-22T10:01:13;24.90;97.30
5226;DHT22;2632;51.666;7.146;2023-06-22T10:03:43;25.10;97.50
5226;DHT22;2632;51.666;7.146;2023-06-22T10:06:09;25.10;96.70
5226;DHT22;2632;51.666;7.146;2023-06-22T10:08:36;25.00;97.20
5226;DHT22;2632;51.666;7.146;2023-06-22T10:11:03;25.00;97.60
5226;DHT22;2632;51.666;7.146;2023-06-22T10:13:30;24.90;97.80
5226;DHT22;2632;51.666;7.146;2023-06-22T10:15:57;24.80;97.60
5226;DHT22;2632;51.666;7.146;2023-06-22T10:18:23;24.90;97.80
5226;DHT22;2632;51.666;7.146;2023-06-22T10:20:50;24.80;97.40
5226;DHT22;2632;51.666;7.146;2023-06-22T10:23:20;24.70;97.50
5226;DHT22;2632;51.666;7.146;2023-06-22T10:25:47;25.10;97.10
5226;DHT22;2632;51.666;7.146;2023-06-22T10:28:14;25.40;96.40
5226;DHT22;2632;51.666;7.146;2023-06-22T10:30:42;25.60;95.80
5226;DHT22;2632;51.666;7.146;2023-06-22T10:33:09;25.70;96.50
5226;DHT22;2632;51.666;7.146;2023-06-22T10:35:37;25.70;95.50
5226;DHT22;2632;51.666;7.146;2023-06-22T10:38:05;26.20;95.10
5226;DHT22;2632;51.666;7.146;2023-06-22T10:40:32;26.50;95.00
5226;DHT22;2632;51.666;7.146;2023-06-22T10:42:58;26.80;93.90
5226;DHT22;2632;51.666;7.146;2023-06-22T10:45:25;26.60;94.40
5226;DHT22;2632;51.666;7.146;2023-06-22T10:47:52;26.50;94.60
5226;DHT22;2632;51.666;7.146;2023-06-22T10:50:18;26.30;94.60
5226;DHT22;2632;51.666;7.146;2023-06-22T10:52:46;26.40;94.60
5226;DHT22;2632;51.666;7.146;2023-06-22T10:55:13;26.60;93.70
5226;DHT22;2632;51.666;7.146;2023-06-22T10:57:39;26.70;93.40
5226;DHT22;2632;51.666;7.146;2023-06-22T11:00:11;26.80;93.40
5226;DHT22;2632;51.666;7.146;2023-06-22T11:02:38;26.70;93.00
5226;DHT22;2632;51.666;7.146;2023-06-22T11:05:05;26.50;92.80
5226;DHT22;2632;51.666;7.146;2023-06-22T11:07:32;26.30;93.60
5226;DHT22;2632;51.666;7.146;2023-06-22T11:09:59;26.20;93.60
5226;DHT22;2632;51.666;7.146;2023-06-22T11:12:26;26.10;93.50
5226;DHT22;2632;51.666;7.146;2023-06-22T11:14:52;26.00;93.80
5226;DHT22;2632;51.666;7.146;2023-06-22T11:17:19;26.00;94.20
5226;DHT22;2632;51.666;7.146;2023-06-22T11:19:46;25.90;94.30
5226;DHT22;2632;51.666;7.146;2023-06-22T11:22:13;25.80;94.20
5226;DHT22;2632;51.666;7.146;2023-06-22T11:24:39;25.70;94.30
5226;DHT22;2632;51.666;7.146;2023-06-22T11:27:06;25.70;94.90
5226;DHT22;2632;51.666;7.146;2023-06-22T11:29:33;25.60;94.80
5226;DHT22;2632;51.666;7.146;2023-06-22T11:32:05;25.50;94.80
5226;DHT22;2632;51.666;7.146;2023-06-22T11:34:32;25.40;94.80
5226;DHT22;2632;51.666;7.146;2023-06-22T11:36:58;25.40;95.20
5226;DHT22;2632;51.666;7.146;2023-06-22T11:39:25;25.40;95.00
5226;DHT22;2632;51.666;7.146;2023-06-22T11:42:08;25.20;95.20
5226;DHT22;2632;51.666;7.146;2023-06-22T11:44:35;25.30;95.30
5226;DHT22;2632;51.666;7.146;2023-06-22T11:47:02;25.20;96.00
5226;DHT22;2632;51.666;7.146;2023-06-22T11:49:31;25.10;96.40
5226;DHT22;2632;51.666;7.146;2023-06-22T11:51:58;25.10;97.00
5226;DHT22;2632;51.666;7.146;2023-06-22T11:54:24;25.00;97.60
5226;DHT22;2632;51.666;7.146;2023-06-22T11:56:51;25.00;98.20
5226;DHT22;2632;51.666;7.146;2023-06-22T11:59:17;24.90;99.10
5226;DHT22;2632;51.666;7.146;2023-06-22T12:01:46;24.70;98.80
5226;DHT22;2632;51.666;7.146;2023-06-22T12:04:12;24.60;99.90
5226;DHT22;2632;51.666;7.146;2023-06-22T12:06:39;24.50;99.90
5226;DHT22;2632;51.666;7.146;2023-06-22T12:09:09;24.40;99.90
5226;DHT22;2632;51.666;7.146;2023-06-22T12:11:35;24.20;99.90
5226;DHT22;2632;51.666;7.146;2023-06-22T12:14:02;24.20;99.90
5226;DHT22;2632;51.666;7.146;2023-06-22T12:16:29;23.90;99.90
5226;DHT22;2632;51.666;7.146;2023-06-22T12:18:55;23.70;99.90
5226;DHT22;2632;51.666;7.146;2023-06-22T12:21:22;23.60;99.90
5226;DHT22;2632;51.666;7.146;2023-06-22T12:23:49;23.50;99.90
5226;DHT22;2632;51.666;7.146;2023-06-22T12:26:16;23.40;99.90
5226;DHT22;2632;51.666;7.146;2023-06-22T12:28:43;23.30;99.90
5226;DHT22;2632;51.666;7.146;2023-06-22T12:31:09;23.30;99.90
5226;DHT22;2632;51.666;7.146;2023-06-22T12:33:36;23.10;99.90
5226;DHT22;2632;51.666;7.146;2023-06-22T12:36:03;22.90;99.90
5226;DHT22;2632;51.666;7.146;2023-06-22T12:38:31;22.80;99.90
5226;DHT22;2632;51.666;7.146;2023-06-22T12:40:58;22.80;99.90
5226;DHT22;2632;51.666;7.146;2023-06-22T12:43:24;22.70;99.90
5226;DHT22;2632;51.666;7.146;2023-06-22T12:45:51;22.60;99.90
5226;DHT22;2632;51.666;7.146;2023-06-22T12:48:18;22.70;99.90
5226;DHT22;2632;51.666;7.146;2023-06-22T12:50:45;22.70;99.90
5226;DHT22;2632;51.666;7.146;2023-06-22T12:53:12;22.70;99.90
5226;DHT22;2632;51.666;7.146;2023-06-22T12:55:39;22.80;99.90
5226;DHT22;2632;51.666;7.146;2023-06-22T12:58:05;22.80;99.90
5226;DHT22;2632;51.666;7.146;2023-06-22T13:00:32;22.70;99.90
5226;DHT22;2632;51.666;7.146;2023-06-22T13:02:59;22.70;99.90
5226;DHT22;2632;51.666;7.146;2023-06-22T13:05:25;22.60;99.90
5226;DHT22;2632;51.666;7.146;2023-06-22T13:07:52;22.80;99.90
5226;DHT22;2632;51.666;7.146;2023-06-22T13:10:19;23.00;99.90
5226;DHT22;2632;51.666;7.146;2023-06-22T13:12:46;23.00;99.90
5226;DHT22;2632;51.666;7.146;2023-06-22T13:15:12;23.10;99.90
5226;DHT22;2632;51.666;7.146;2023-06-22T13:17:39;23.10;99.90
5226;DHT22;2632;51.666;7.146;2023-06-22T13:20:06;23.10;99.90
5226;DHT22;2632;51.666;7.146;2023-06-22T13:22:34;23.10;99.90
5226;DHT22;2632;51.666;7.146;2023-06-22T13:25:07;23.00;99.90
5226;DHT22;2632;51.666;7.146;2023-06-22T13:27:36;22.90;99.90
5226;DHT22;2632;51.666;7.146;2023-06-22T13:30:03;22.90;99.90
5226;DHT22;2632;51.666;7.146;2023-06-22T13:32:30;22.90;99.90
5226;DHT22;2632;51.666;7.146;2023-06-22T13:34:58;22.90;99.90
5226;DHT22;2632;51.666;7.146;2023-06-22T13:37:25;22.90;99.90
5226;DHT22;2632;51.666;7.146;2023-06-22T13:39:52;22.90;99.90
5226;DHT22;2632;51.666;7.146;2023-06-22T13:42:19;22.80;99.90
5226;DHT22;2632;51.666;7.146;2023-06-22T13:44:45;22.80;99.90
5226;DHT22;2632;51.666;7.146;2023-06-22T13:47:12;22.80;99.90
5226;DHT22;2632;51.666;7.146;2023-06-22T13:49:39;22.70;99.90
5226;DHT22;2632;51.666;7.146;2023-06-22T13:52:06;22.70;99.90
5226;DHT22;2632;51.666;7.146;2023-06-22T13:54:36;22.70;99.90
5226;DHT22;2632;51.666;7.146;2023-06-22T13:57:03;22.80;99.90
5226;DHT22;2632;51.666;7.146;2023-06-22T13:59:30;22.80;99.90
5226;DHT22;2632;51.666;7.146;2023-06-22T14:01:57;22.80;99.90
5226;DHT22;2632;51.666;7.146;2023-06-22T14:04:23;22.70;99.90
5226;DHT22;2632;51.666;7.146;2023-06-22T14:06:50;22.70;99.90
5226;DHT22;2632;51.666;7.146;2023-06-22T14:09:20;22.60;99.90
5226;DHT22;2632;51.666;7.146;2023-06-22T14:11:46;22.70;99.90
5226;DHT22;2632;51.666;7.146;2023-06-22T14:14:13;22.70;99.90
5226;DHT22;2632;51.666;7.146;2023-06-22T14:16:40;22.80;99.90
5226;DHT22;2632;51.666;7.146;2023-06-22T14:19:06;22.80;99.90
5226;DHT22;2632;51.666;7.146;2023-06-22T14:21:33;22.80;99.90
5226;DHT22;2632;51.666;7.146;2023-06-22T14:23:59;22.90;99.90
5226;DHT22;2632;51.666;7.146;2023-06-22T14:26:26;22.90;99.90
5226;DHT22;2632;51.666;7.146;2023-06-22T14:28:53;23.10;99.90
5226;DHT22;2632;51.666;7.146;2023-06-22T14:31:20;23.10;99.90
5226;DHT22;2632;51.666;7.146;2023-06-22T14:33:47;23.20;99.90
5226;DHT22;2632;51.666;7.146;2023-06-22T14:36:15;23.30;99.90
5226;DHT22;2632;51.666;7.146;2023-06-22T14:38:43;23.40;99.90
5226;DHT22;2632;51.666;7.146;2023-06-22T14:41:09;23.30;99.90
5226;DHT22;2632;51.666;7.146;2023-06-22T14:43:44;23.30;99.90
5226;DHT22;2632;51.666;7.146;2023-06-22T14:46:14;23.40;99.90
5226;DHT22;2632;51.666;7.146;2023-06-22T14:48:41;23.30;99.90
5226;DHT22;2632;51.666;7.146;2023-06-22T14:51:09;23.30;99.90
5226;DHT22;2632;51.666;7.146;2023-06-22T14:53:39;23.30;99.90
5226;DHT22;2632;51.666;7.146;2023-06-22T14:56:06;23.30;99.90
5226;DHT22;2632;51.666;7.146;2023-06-22T14:58:33;23.30;99.90
5226;DHT22;2632;51.666;7.146;2023-06-22T15:01:00;23.20;99.90
5226;DHT22;2632;51.666;7.146;2023-06-22T15:03:29;23.10;99.90
5226;DHT22;2632;51.666;7.146;2023-06-22T15:05:58;23.10;99.90
5226;DHT22;2632;51.666;7.146;2023-06-22T15:08:25;23.20;99.90
5226;DHT22;2632;51.666;7.146;2023-06-22T15:10:52;23.30;99.90
5226;DHT22;2632;51.666;7.146;2023-06-22T15:13:19;23.30;99.90
5226;DHT22;2632;51.666;7.146;2023-06-22T15:15:47;23.10;99.90
5226;DHT22;2632;51.666;7.146;2023-06-22T15:18:14;23.00;99.90
5226;DHT22;2632;51.666;7.146;2023-06-22T15:20:42;23.00;99.90
5226;DHT22;2632;51.666;7.146;2023-06-22T15:23:12;22.90;99.90
5226;DHT22;2632;51.666;7.146;2023-06-22T15:25:39;23.10;99.90
5226;DHT22;2632;51.666;7.146;2023-06-22T15:28:06;23.20;99.90
5226;DHT22;2632;51.666;7.146;2023-06-22T15:30:33;23.30;99.90
5226;DHT22;2632;51.666;7.146;2023-06-22T15:33:01;23.50;99.90
5226;DHT22;2632;51.666;7.146;2023-06-22T15:35:28;23.30;99.90
5226;DHT22;2632;51.666;7.146;2023-06-22T15:37:55;23.30;99.90
5226;DHT22;2632;51.666;7.146;2023-06-22T15:40:22;23.20;99.90
5226;DHT22;2632;51.666;7.146;2023-06-22T15:42:52;23.30;99.90
5226;DHT22;2632;51.666;7.146;2023-06-22T15:45:19;23.10;99.90
5226;DHT22;2632;51.666;7.146;2023-06-22T15:47:46;23.00;99.90
5226;DHT22;2632;51.666;7.146;2023-06-22T15:50:13;22.90;99.90
5226;DHT22;2632;51.666;7.146;2023-06-22T15:52:40;22.80;99.90
5226;DHT22;2632;51.666;7.146;2023-06-22T15:55:07;22.80;99.90
5226;DHT22;2632;51.666;7.146;2023-06-22T15:57:36;22.90;99.90
5226;DHT22;2632;51.666;7.146;2023-06-22T16:00:03;22.80;99.90
5226;DHT22;2632;51.666;7.146;2023-06-22T16:02:31;22.60;99.90
5226;DHT22;2632;51.666;7.146;2023-06-22T16:04:58;22.50;99.90
5226;DHT22;2632;51.666;7.146;2023-06-22T16:07:25;22.40;99.90
5226;DHT22;2632;51.666;7.146;2023-06-22T16:09:53;22.30;99.90